PWSweather.com
Personal Weather Stations
Station Observations
MIKESPOST
YorkGB

YorkGB

Lat: 53.9577018, Lon: -1.0822855

Elevation: 0

Station Type: WH1081

High Low Average
Temperature 48.7°F9.3°F 41.9°F5.5°F 45.5°F7.5°F
Dew Point 48.5°F9.2°F 41.6°F5.3°F 45.3°F7.4°F
Winds 6.3 mph E10.1 mph E Calm Calm 1.1 mph 1.8 mph
Wind Gusts 13.4 mph21.6 mph -- 2.2 mph3.5 mph
Humidity 99% 99% 99%
Pressure 29.54 in1000.30 in 29.36 in994.20 in -
Precipitation 0.12 in3.00 in - -
Hour Temp Dew Point Humidity Winds Wind Gusts Pressure Precip Precip Rate Daily Precip Total
12:00 AM 44.1°F6.7°C 43.8°F6.6°C 99% Calm Calm -- 29.54 in1000.3 mb 0.00 in0.0 mm 0.00 in/hr0.0 mm/hr 0.00 in0.0 mm
12:20 AM 44.2°F6.8°C 44.0°F6.7°C 99% Calm Calm -- 29.53 in1000.0 mb 0.01 in0.3 mm 0.03 in/hr0.8 mm/hr 0.01 in0.3 mm
12:40 AM 44.1°F6.7°C 43.8°F6.6°C 99% Calm Calm -- 29.52 in999.7 mb 0.01 in0.3 mm 0.00 in/hr0.0 mm/hr 0.01 in0.3 mm
01:00 AM 43.9°F6.6°C 43.6°F6.4°C 99% Calm Calm -- 29.51 in999.3 mb 0.01 in0.3 mm 0.00 in/hr0.0 mm/hr 0.01 in0.3 mm
01:20 AM 43.9°F6.6°C 43.6°F6.4°C 99% Calm Calm -- 29.50 in999.0 mb 0.00 in0.0 mm 0.00 in/hr0.0 mm/hr 0.01 in0.3 mm
01:40 AM 43.9°F6.6°C 43.6°F6.4°C 99% Calm Calm -- 29.50 in999.0 mb 0.00 in0.0 mm 0.00 in/hr0.0 mm/hr 0.01 in0.3 mm
02:00 AM 43.9°F6.6°C 43.6°F6.4°C 99% Calm Calm -- 29.50 in999.0 mb 0.00 in0.0 mm 0.00 in/hr0.0 mm/hr 0.01 in0.3 mm
02:20 AM 43.9°F6.6°C 43.6°F6.4°C 99% Calm Calm -- 29.49 in998.6 mb 0.00 in0.0 mm 0.00 in/hr0.0 mm/hr 0.01 in0.3 mm
02:40 AM 43.9°F6.6°C 43.6°F6.4°C 99% Calm Calm -- 29.49 in998.6 mb 0.00 in0.0 mm 0.00 in/hr0.0 mm/hr 0.01 in0.3 mm
03:00 AM 43.9°F6.6°C 43.6°F6.4°C 99% Calm Calm -- 29.48 in998.3 mb 0.00 in0.0 mm 0.00 in/hr0.0 mm/hr 0.01 in0.3 mm
03:20 AM 43.7°F6.5°C 43.4°F6.3°C 99% Calm Calm -- 29.48 in998.3 mb 0.00 in0.0 mm 0.00 in/hr0.0 mm/hr 0.01 in0.3 mm
03:40 AM 43.7°F6.5°C 43.4°F6.3°C 99% Calm Calm -- 29.47 in998.0 mb 0.00 in0.0 mm 0.00 in/hr0.0 mm/hr 0.01 in0.3 mm
04:00 AM 43.7°F6.5°C 43.4°F6.3°C 99% Calm Calm -- 29.46 in997.6 mb 0.00 in0.0 mm 0.00 in/hr0.0 mm/hr 0.01 in0.3 mm
04:20 AM 43.7°F6.5°C 43.4°F6.3°C 99% Calm Calm -- 29.46 in997.6 mb 0.00 in0.0 mm 0.00 in/hr0.0 mm/hr 0.01 in0.3 mm
04:40 AM 43.9°F6.6°C 43.6°F6.4°C 99% Calm Calm -- 29.45 in997.3 mb 0.00 in0.0 mm 0.00 in/hr0.0 mm/hr 0.01 in0.3 mm
05:00 AM 43.9°F6.6°C 43.6°F6.4°C 99% Calm Calm -- 29.45 in997.3 mb 0.00 in0.0 mm 0.00 in/hr0.0 mm/hr 0.01 in0.3 mm
05:20 AM 43.9°F6.6°C 43.6°F6.4°C 99% Calm Calm -- 29.44 in997.0 mb 0.00 in0.0 mm 0.00 in/hr0.0 mm/hr 0.01 in0.3 mm
05:40 AM 43.9°F6.6°C 43.6°F6.4°C 99% Calm Calm -- 29.44 in997.0 mb 0.01 in0.3 mm 0.03 in/hr0.8 mm/hr 0.02 in0.5 mm
06:00 AM 43.9°F6.6°C 43.6°F6.4°C 99% Calm Calm -- 29.44 in997.0 mb 0.01 in0.3 mm 0.00 in/hr0.0 mm/hr 0.02 in0.5 mm
06:20 AM 43.9°F6.6°C 43.6°F6.4°C 99% Calm Calm -- 29.43 in996.6 mb 0.01 in0.3 mm 0.00 in/hr0.0 mm/hr 0.02 in0.5 mm
06:40 AM 43.9°F6.6°C 43.6°F6.4°C 99% Calm Calm -- 29.42 in996.3 mb 0.00 in0.0 mm 0.00 in/hr0.0 mm/hr 0.02 in0.5 mm
07:00 AM 43.9°F6.6°C 43.6°F6.4°C 99% Calm Calm -- 29.42 in996.3 mb 0.00 in0.0 mm 0.00 in/hr0.0 mm/hr 0.02 in0.5 mm
07:20 AM 43.9°F6.6°C 43.6°F6.4°C 99% Calm Calm -- 29.42 in996.3 mb 0.00 in0.0 mm 0.00 in/hr0.0 mm/hr 0.02 in0.5 mm
07:40 AM 44.1°F6.7°C 43.8°F6.6°C 99% Calm Calm -- 29.42 in996.3 mb 0.00 in0.0 mm 0.00 in/hr0.0 mm/hr 0.02 in0.5 mm
08:00 AM 44.1°F6.7°C 43.8°F6.6°C 99% Calm Calm -- 29.42 in996.3 mb 0.00 in0.0 mm 0.00 in/hr0.0 mm/hr 0.02 in0.5 mm
08:20 AM 44.4°F6.9°C 44.2°F6.8°C 99% Calm Calm -- 29.42 in996.3 mb 0.00 in0.0 mm 0.00 in/hr0.0 mm/hr 0.02 in0.5 mm
08:40 AM 45.0°F7.2°C 44.7°F7.1°C 99% Calm Calm -- 29.42 in996.3 mb 0.00 in0.0 mm 0.00 in/hr0.0 mm/hr 0.02 in0.5 mm
09:00 AM 45.1°F7.3°C 44.9°F7.2°C 99% Calm Calm -- 29.42 in996.3 mb 0.00 in0.0 mm 0.00 in/hr0.0 mm/hr 0.02 in0.5 mm
09:20 AM 45.5°F7.5°C 45.2°F7.3°C 99% Calm Calm -- 29.42 in996.3 mb 0.00 in0.0 mm 0.00 in/hr0.0 mm/hr 0.02 in0.5 mm
09:40 AM 45.7°F7.6°C 45.4°F7.4°C 99% 0.3 mph N0.5 kmh N 1.7 mph2.7 kmh 29.41 in995.9 mb 0.00 in0.0 mm 0.00 in/hr0.0 mm/hr 0.02 in0.5 mm
10:00 AM 45.9°F7.7°C 45.6°F7.6°C 99% 1.6 mph S2.6 kmh S 3.9 mph6.3 kmh 29.41 in995.9 mb 0.00 in0.0 mm 0.00 in/hr0.0 mm/hr 0.02 in0.5 mm
10:20 AM 46.4°F8.0°C 46.1°F7.8°C 99% 5.1 mph SE8.2 kmh SE 7.8 mph12.6 kmh 29.40 in995.6 mb 0.00 in0.0 mm 0.00 in/hr0.0 mm/hr 0.02 in0.5 mm
10:40 AM 46.8°F8.2°C 46.5°F8.1°C 99% 4.9 mph SSE7.9 kmh SSE 9.5 mph15.3 kmh 29.39 in995.3 mb 0.00 in0.0 mm 0.00 in/hr0.0 mm/hr 0.02 in0.5 mm
11:00 AM 46.9°F8.3°C 46.7°F8.2°C 99% 2.5 mph SSE4.0 kmh SSE 5.6 mph9.0 kmh 29.39 in995.3 mb 0.00 in0.0 mm 0.00 in/hr0.0 mm/hr 0.02 in0.5 mm
11:20 AM 46.9°F8.3°C 46.7°F8.2°C 99% 3.9 mph SSE6.3 kmh SSE 5.6 mph9.0 kmh 29.39 in995.3 mb 0.00 in0.0 mm 0.00 in/hr0.0 mm/hr 0.02 in0.5 mm
11:40 AM 47.1°F8.4°C 46.9°F8.3°C 99% 3.0 mph S4.8 kmh S 5.6 mph9.0 kmh 29.39 in995.3 mb 0.00 in0.0 mm 0.00 in/hr0.0 mm/hr 0.02 in0.5 mm
12:00 PM 47.3°F8.5°C 47.0°F8.3°C 99% 1.6 mph S2.6 kmh S 3.9 mph6.3 kmh 29.39 in995.3 mb 0.00 in0.0 mm 0.00 in/hr0.0 mm/hr 0.02 in0.5 mm
12:20 PM 47.7°F8.7°C 47.4°F8.6°C 99% 1.7 mph SSE2.7 kmh SSE 3.9 mph6.3 kmh 29.38 in994.9 mb 0.00 in0.0 mm 0.00 in/hr0.0 mm/hr 0.02 in0.5 mm
12:40 PM 47.7°F8.7°C 47.4°F8.6°C 99% 2.5 mph S4.0 kmh S 3.9 mph6.3 kmh 29.38 in994.9 mb 0.00 in0.0 mm 0.00 in/hr0.0 mm/hr 0.02 in0.5 mm
01:00 PM 48.0°F8.9°C 47.8°F8.8°C 99% 1.3 mph SW2.1 kmh SW 3.9 mph6.3 kmh 29.37 in994.6 mb 0.00 in0.0 mm 0.00 in/hr0.0 mm/hr 0.02 in0.5 mm
01:20 PM 48.2°F9.0°C 47.9°F8.8°C 99% 0.5 mph S0.8 kmh S 1.7 mph2.7 kmh 29.36 in994.2 mb 0.00 in0.0 mm 0.00 in/hr0.0 mm/hr 0.02 in0.5 mm
01:40 PM 48.2°F9.0°C 47.9°F8.8°C 99% 1.9 mph S3.1 kmh S 3.9 mph6.3 kmh 29.36 in994.2 mb 0.00 in0.0 mm 0.00 in/hr0.0 mm/hr 0.02 in0.5 mm
02:00 PM 48.2°F9.0°C 47.9°F8.8°C 99% 1.1 mph S1.8 kmh S 3.9 mph6.3 kmh 29.36 in994.2 mb 0.00 in0.0 mm 0.00 in/hr0.0 mm/hr 0.02 in0.5 mm
02:20 PM 48.2°F9.0°C 47.9°F8.8°C 99% 0.1 mph N0.2 kmh N 1.7 mph2.7 kmh 29.36 in994.2 mb 0.00 in0.0 mm 0.00 in/hr0.0 mm/hr 0.02 in0.5 mm
02:40 PM 48.7°F9.3°C 48.5°F9.2°C 99% Calm Calm -- 29.36 in994.2 mb 0.01 in0.3 mm 0.03 in/hr0.8 mm/hr 0.04 in1.0 mm
03:00 PM 48.6°F9.2°C 48.3°F9.1°C 99% 0.3 mph N0.5 kmh N 1.7 mph2.7 kmh 29.36 in994.2 mb 0.01 in0.3 mm 0.00 in/hr0.0 mm/hr 0.04 in1.0 mm
03:20 PM 48.6°F9.2°C 48.3°F9.1°C 99% Calm Calm -- 29.36 in994.2 mb 0.01 in0.3 mm 0.00 in/hr0.0 mm/hr 0.04 in1.0 mm
03:40 PM 48.2°F9.0°C 47.9°F8.8°C 99% Calm Calm -- 29.36 in994.2 mb 0.00 in0.0 mm 0.00 in/hr0.0 mm/hr 0.04 in1.0 mm
04:00 PM 48.2°F9.0°C 47.9°F8.8°C 99% Calm Calm -- 29.36 in994.2 mb 0.00 in0.0 mm 0.00 in/hr0.0 mm/hr 0.04 in1.0 mm
04:20 PM 48.0°F8.9°C 47.8°F8.8°C 99% Calm Calm -- 29.36 in994.2 mb 0.00 in0.0 mm 0.00 in/hr0.0 mm/hr 0.04 in1.0 mm
04:40 PM 48.0°F8.9°C 47.8°F8.8°C 99% Calm Calm -- 29.36 in994.2 mb 0.00 in0.0 mm 0.00 in/hr0.0 mm/hr 0.04 in1.0 mm
05:00 PM 47.8°F8.8°C 47.6°F8.7°C 99% Calm Calm -- 29.37 in994.6 mb 0.00 in0.0 mm 0.00 in/hr0.0 mm/hr 0.04 in1.0 mm
05:20 PM 47.8°F8.8°C 47.6°F8.7°C 99% Calm Calm -- 29.37 in994.6 mb 0.00 in0.0 mm 0.00 in/hr0.0 mm/hr 0.04 in1.0 mm
05:40 PM 47.8°F8.8°C 47.6°F8.7°C 99% 3.0 mph S4.8 kmh S 7.8 mph12.6 kmh 29.38 in994.9 mb 0.00 in0.0 mm 0.00 in/hr0.0 mm/hr 0.04 in1.0 mm
06:00 PM 47.7°F8.7°C 47.4°F8.6°C 99% 4.3 mph S6.9 kmh S 13.4 mph21.6 kmh 29.38 in994.9 mb 0.00 in0.0 mm 0.00 in/hr0.0 mm/hr 0.04 in1.0 mm
06:20 PM 47.5°F8.6°C 47.2°F8.4°C 99% 6.3 mph E10.1 kmh E 11.2 mph18.0 kmh 29.39 in995.3 mb 0.00 in0.0 mm 0.00 in/hr0.0 mm/hr 0.04 in1.0 mm
06:40 PM 47.3°F8.5°C 47.0°F8.3°C 99% 5.7 mph S9.2 kmh S 9.5 mph15.3 kmh 29.39 in995.3 mb 0.00 in0.0 mm 0.00 in/hr0.0 mm/hr 0.04 in1.0 mm
07:00 PM 47.1°F8.4°C 46.9°F8.3°C 99% 6.0 mph SSE9.7 kmh SSE 13.4 mph21.6 kmh 29.39 in995.3 mb 0.00 in0.0 mm 0.00 in/hr0.0 mm/hr 0.04 in1.0 mm
07:20 PM 46.9°F8.3°C 46.7°F8.2°C 99% 4.8 mph S7.7 kmh S 7.8 mph12.6 kmh 29.40 in995.6 mb 0.00 in0.0 mm 0.00 in/hr0.0 mm/hr 0.04 in1.0 mm
07:40 PM 46.4°F8.0°C 46.1°F7.8°C 99% 4.1 mph SSE6.6 kmh SSE 5.6 mph9.0 kmh 29.41 in995.9 mb 0.00 in0.0 mm 0.00 in/hr0.0 mm/hr 0.04 in1.0 mm
08:00 PM 46.0°F7.8°C 45.8°F7.7°C 99% 3.3 mph S5.3 kmh S 5.6 mph9.0 kmh 29.41 in995.9 mb 0.00 in0.0 mm 0.00 in/hr0.0 mm/hr 0.04 in1.0 mm
08:20 PM 45.5°F7.5°C 45.2°F7.3°C 99% 2.8 mph S4.5 kmh S 5.6 mph9.0 kmh 29.41 in995.9 mb 0.00 in0.0 mm 0.00 in/hr0.0 mm/hr 0.04 in1.0 mm
09:00 PM 45.0°F7.2°C 44.7°F7.1°C 99% 2.5 mph S4.0 kmh S 5.6 mph9.0 kmh 29.42 in996.3 mb 0.00 in0.0 mm 0.00 in/hr0.0 mm/hr 0.04 in1.0 mm
09:20 PM 44.2°F6.8°C 44.0°F6.7°C 99% Calm Calm -- 29.42 in996.3 mb 0.00 in0.0 mm 0.00 in/hr0.0 mm/hr 0.04 in1.0 mm
09:40 PM 43.2°F6.2°C 42.9°F6.1°C 99% Calm Calm -- 29.42 in996.3 mb 0.00 in0.0 mm 0.00 in/hr0.0 mm/hr 0.04 in1.0 mm
10:00 PM 41.9°F5.5°C 41.6°F5.3°C 99% Calm Calm -- 29.43 in996.6 mb 0.00 in0.0 mm 0.00 in/hr0.0 mm/hr 0.04 in1.0 mm
10:20 PM 42.3°F5.7°C 42.0°F5.6°C 99% Calm Calm -- 29.44 in997.0 mb 0.00 in0.0 mm 0.00 in/hr0.0 mm/hr 0.04 in1.0 mm
10:40 PM 42.6°F5.9°C 42.4°F5.8°C 99% Calm Calm -- 29.44 in997.0 mb 0.00 in0.0 mm 0.00 in/hr0.0 mm/hr 0.04 in1.0 mm
11:00 PM 43.2°F6.2°C 42.9°F6.1°C 99% 0.5 mph SSW0.8 kmh SSW 1.7 mph2.7 kmh 29.44 in997.0 mb 0.01 in0.3 mm 0.02 in/hr0.5 mm/hr 0.05 in1.3 mm
11:20 PM 43.7°F6.5°C 43.4°F6.3°C 99% 0.5 mph SW0.8 kmh SW 1.7 mph2.7 kmh 29.44 in997.0 mb 0.01 in0.3 mm 0.00 in/hr0.0 mm/hr 0.05 in1.3 mm
11:40 PM 43.7°F6.5°C 43.4°F6.3°C 99% Calm Calm -- 29.44 in997.0 mb 0.01 in0.3 mm 0.00 in/hr0.0 mm/hr 0.05 in1.3 mm